createdAt,value
2022-07-25T00:00:58.493Z,1011.95
2022-07-25T00:01:58.554Z,1011.91
2022-07-25T00:02:58.447Z,1011.93
2022-07-25T00:03:58.483Z,1011.92
2022-07-25T00:04:58.444Z,1011.91
2022-07-25T00:05:58.381Z,1011.89
2022-07-25T00:06:58.355Z,1011.89
2022-07-25T00:07:58.331Z,1011.88
2022-07-25T00:08:58.307Z,1011.88
2022-07-25T00:09:58.285Z,1011.82
2022-07-25T00:10:58.262Z,1011.82
2022-07-25T00:11:58.241Z,1011.82
2022-07-25T00:12:58.219Z,1011.82
2022-07-25T00:13:58.193Z,1011.78
2022-07-25T00:14:58.171Z,1011.79
2022-07-25T00:15:58.162Z,1011.79
2022-07-25T00:16:58.124Z,1011.77
2022-07-25T00:17:58.102Z,1011.78
2022-07-25T00:18:58.077Z,1011.77
2022-07-25T00:19:58.054Z,1011.79
2022-07-25T00:20:58.035Z,1011.76
2022-07-25T00:21:58.013Z,1011.75
2022-07-25T00:22:57.982Z,1011.72
2022-07-25T00:23:57.964Z,1011.72
2022-07-25T00:24:57.938Z,1011.73
2022-07-25T00:25:57.913Z,1011.71
2022-07-25T00:26:57.898Z,1011.72
2022-07-25T00:27:57.869Z,1011.68
2022-07-25T00:28:57.845Z,1011.68
2022-07-25T00:29:57.824Z,1011.68
2022-07-25T00:30:57.864Z,1011.67
2022-07-25T00:31:57.774Z,1011.70
2022-07-25T00:32:57.752Z,1011.67
2022-07-25T00:33:57.729Z,1011.66
2022-07-25T00:34:57.705Z,1011.69
2022-07-25T00:35:57.682Z,1011.66
2022-07-25T00:36:57.659Z,1011.69
2022-07-25T00:37:57.635Z,1011.69
2022-07-25T00:38:57.612Z,1011.67
2022-07-25T00:39:57.586Z,1011.66
2022-07-25T00:40:57.566Z,1011.62
2022-07-25T00:41:57.541Z,1011.63
2022-07-25T00:42:57.517Z,1011.65
2022-07-25T00:43:57.494Z,1011.62
2022-07-25T00:44:57.484Z,1011.60
2022-07-25T00:45:57.540Z,1011.55
2022-07-25T00:46:57.506Z,1011.57
2022-07-25T00:47:57.409Z,1011.55
2022-07-25T00:48:57.428Z,1011.55
2022-07-25T00:49:57.354Z,1011.53
2022-07-25T00:50:57.334Z,1011.52
2022-07-25T00:51:57.304Z,1011.52
2022-07-25T00:52:57.283Z,1011.52
2022-07-25T00:53:57.277Z,1011.49
2022-07-25T00:54:57.244Z,1011.49
2022-07-25T00:55:57.212Z,1011.49
2022-07-25T00:56:57.188Z,1011.47
2022-07-25T00:57:57.164Z,1011.50
2022-07-25T00:58:57.144Z,1011.46
2022-07-25T00:59:57.117Z,1011.44
2022-07-25T01:00:57.097Z,1011.45
2022-07-25T01:01:57.181Z,1011.42
2022-07-25T01:02:57.196Z,1011.42
2022-07-25T01:03:57.019Z,1011.42
2022-07-25T01:04:56.997Z,1011.42
2022-07-25T01:05:56.971Z,1011.43
2022-07-25T01:06:56.946Z,1011.44
2022-07-25T01:07:56.924Z,1011.44
2022-07-25T01:08:56.901Z,1011.45
2022-07-25T01:09:56.876Z,1011.42
2022-07-25T01:10:56.852Z,1011.44
2022-07-25T01:11:56.833Z,1011.40
2022-07-25T01:12:56.804Z,1011.42
2022-07-25T01:13:56.785Z,1011.39
2022-07-25T01:14:56.756Z,1011.40
2022-07-25T01:15:56.786Z,1011.40
2022-07-25T01:16:56.711Z,1011.41
2022-07-25T01:17:56.688Z,1011.42
2022-07-25T01:18:56.662Z,1011.40
2022-07-25T01:19:56.641Z,1011.43
2022-07-25T01:20:56.616Z,1011.41
2022-07-25T01:21:56.596Z,1011.41
2022-07-25T01:22:56.572Z,1011.44
2022-07-25T01:23:56.544Z,1011.39
2022-07-25T01:24:56.520Z,1011.38
2022-07-25T01:25:56.496Z,1011.36
2022-07-25T01:26:56.471Z,1011.35
2022-07-25T01:27:56.447Z,1011.36
2022-07-25T01:28:56.425Z,1011.36
2022-07-25T01:29:56.403Z,1011.32
2022-07-25T01:30:56.402Z,1011.34
2022-07-25T01:31:56.355Z,1011.32
2022-07-25T01:32:56.332Z,1011.33
2022-07-25T01:33:56.308Z,1011.32
2022-07-25T01:34:56.282Z,1011.32
2022-07-25T01:35:56.258Z,1011.34
2022-07-25T01:36:56.234Z,1011.33
2022-07-25T01:37:56.213Z,1011.36
2022-07-25T01:38:56.190Z,1011.33
2022-07-25T01:39:56.166Z,1011.35
2022-07-25T01:40:56.142Z,1011.30
2022-07-25T01:41:56.119Z,1011.28
2022-07-25T01:42:56.093Z,1011.27
2022-07-25T01:43:56.070Z,1011.29
2022-07-25T01:44:56.054Z,1011.24
2022-07-25T01:45:56.171Z,1011.27
2022-07-25T01:46:55.998Z,1011.27
2022-07-25T01:47:55.975Z,1011.21
2022-07-25T01:48:56.056Z,1011.18
2022-07-25T01:49:55.929Z,1011.22
2022-07-25T01:50:55.907Z,1011.18
2022-07-25T01:51:55.879Z,1011.20
2022-07-25T01:52:55.853Z,1011.19
2022-07-25T01:53:55.829Z,1011.19
2022-07-25T01:54:55.808Z,1011.19
2022-07-25T01:55:55.781Z,1011.17
2022-07-25T01:56:55.761Z,1011.16
2022-07-25T01:57:55.737Z,1011.16
2022-07-25T01:58:55.718Z,1011.12
2022-07-25T01:59:55.684Z,1011.12
2022-07-25T02:00:55.663Z,1011.12
2022-07-25T02:01:55.677Z,1011.06
2022-07-25T02:02:55.616Z,1011.09
2022-07-25T02:03:55.595Z,1011.09
2022-07-25T02:04:55.659Z,1011.06
2022-07-25T02:05:55.544Z,1011.06
2022-07-25T02:06:55.522Z,1011.07
2022-07-25T02:07:55.493Z,1011.04
2022-07-25T02:08:55.475Z,1011.05
2022-07-25T02:09:56.986Z,1011.02
2022-07-25T02:10:55.425Z,1011.05
2022-07-25T02:11:55.398Z,1011.01
2022-07-25T02:12:55.375Z,1011.03
2022-07-25T02:13:55.354Z,1011.01
2022-07-25T02:14:55.330Z,1010.96
2022-07-25T02:15:55.310Z,1010.94
2022-07-25T02:16:55.361Z,1010.91
2022-07-25T02:17:55.254Z,1010.94
2022-07-25T02:18:55.231Z,1010.93
2022-07-25T02:19:55.208Z,1010.92
2022-07-25T02:20:55.185Z,1010.91
2022-07-25T02:21:55.160Z,1010.91
2022-07-25T02:22:55.135Z,1010.87
2022-07-25T02:23:55.111Z,1010.85
2022-07-25T02:24:55.086Z,1010.90
2022-07-25T02:25:55.061Z,1010.84
2022-07-25T02:26:55.038Z,1010.85
2022-07-25T02:27:55.023Z,1010.80
2022-07-25T02:28:54.993Z,1010.82
2022-07-25T02:29:54.966Z,1010.81
2022-07-25T02:30:54.979Z,1010.81
2022-07-25T02:31:54.917Z,1010.76
2022-07-25T02:32:54.905Z,1010.77
2022-07-25T02:33:54.872Z,1010.74
2022-07-25T02:34:54.843Z,1010.73
2022-07-25T02:35:54.823Z,1010.72
2022-07-25T02:36:54.800Z,1010.70
2022-07-25T02:37:54.776Z,1010.69
2022-07-25T02:38:54.751Z,1010.69
2022-07-25T02:39:54.725Z,1010.71
2022-07-25T02:40:54.703Z,1010.70
2022-07-25T02:41:54.678Z,1010.65
2022-07-25T02:42:54.653Z,1010.66
2022-07-25T02:43:54.627Z,1010.65
2022-07-25T02:44:54.602Z,1010.65
2022-07-25T02:45:54.639Z,1010.64
2022-07-25T02:46:54.553Z,1010.61
2022-07-25T02:47:54.527Z,1010.59
2022-07-25T02:48:54.606Z,1010.58
2022-07-25T02:49:54.486Z,1010.55
2022-07-25T02:50:54.460Z,1010.52
2022-07-25T02:51:54.429Z,1010.50
2022-07-25T02:52:54.406Z,1010.46
2022-07-25T02:53:57.848Z,1010.46
2022-07-25T02:54:54.357Z,1010.43
2022-07-25T02:55:54.334Z,1010.44
2022-07-25T02:56:54.313Z,1010.46
2022-07-25T02:57:54.285Z,1010.43
2022-07-25T02:58:54.260Z,1010.44
2022-07-25T02:59:54.233Z,1010.39
2022-07-25T03:00:54.274Z,1010.39
2022-07-25T03:01:54.302Z,1010.42
2022-07-25T03:02:54.166Z,1010.41
2022-07-25T03:03:54.245Z,1010.41
2022-07-25T03:04:54.114Z,1010.41
2022-07-25T03:05:54.085Z,1010.37
2022-07-25T03:06:54.067Z,1010.39
2022-07-25T03:07:54.051Z,1010.33
2022-07-25T03:08:54.011Z,1010.34
2022-07-25T03:09:53.987Z,1010.33
2022-07-25T03:10:53.965Z,1010.34
2022-07-25T03:11:53.939Z,1010.31
2022-07-25T03:12:53.916Z,1010.34
2022-07-25T03:13:53.890Z,1010.34
2022-07-25T03:14:53.867Z,1010.36
2022-07-25T03:15:53.840Z,1010.35
2022-07-25T03:16:53.930Z,1010.32
2022-07-25T03:17:53.790Z,1010.36
2022-07-25T03:18:53.764Z,1010.33
2022-07-25T03:19:53.740Z,1010.33
2022-07-25T03:20:53.725Z,1010.35
2022-07-25T03:21:53.695Z,1010.34
2022-07-25T03:22:53.674Z,1010.33
2022-07-25T03:23:53.644Z,1010.33
2022-07-25T03:24:53.623Z,1010.29
2022-07-25T03:25:53.599Z,1010.30
2022-07-25T03:26:53.569Z,1010.29
2022-07-25T03:27:53.546Z,1010.27
2022-07-25T03:28:53.519Z,1010.25
2022-07-25T03:29:53.495Z,1010.24
2022-07-25T03:30:53.483Z,1010.25
2022-07-25T03:31:53.557Z,1010.24
2022-07-25T03:32:53.421Z,1010.26
2022-07-25T03:33:53.401Z,1010.22
2022-07-25T03:34:53.371Z,1010.22
2022-07-25T03:35:53.349Z,1010.23
2022-07-25T03:36:53.324Z,1010.20
2022-07-25T03:37:53.301Z,1010.19
2022-07-25T03:38:53.274Z,1010.22
2022-07-25T03:39:53.250Z,1010.17
2022-07-25T03:40:53.226Z,1010.20
2022-07-25T03:41:53.201Z,1010.17
2022-07-25T03:42:53.175Z,1010.16
2022-07-25T03:43:53.152Z,1010.16
2022-07-25T03:44:53.126Z,1010.16
2022-07-25T03:45:53.175Z,1010.15
2022-07-25T03:46:53.077Z,1010.16
2022-07-25T03:47:53.051Z,1010.17
2022-07-25T03:48:53.077Z,1010.18
2022-07-25T03:49:53.003Z,1010.19
2022-07-25T03:50:52.976Z,1010.18
2022-07-25T03:51:52.955Z,1010.19
2022-07-25T03:52:52.927Z,1010.15
2022-07-25T03:53:52.906Z,1010.14
2022-07-25T03:54:52.882Z,1010.14
2022-07-25T03:55:52.853Z,1010.11
2022-07-25T03:56:52.834Z,1010.04
2022-07-25T03:57:52.808Z,1010.00
2022-07-25T03:58:52.783Z,1010.02
2022-07-25T03:59:52.759Z,1010.01
2022-07-25T04:00:52.805Z,1010.02
2022-07-25T04:01:52.738Z,1010.04
2022-07-25T04:02:52.684Z,1010.04
2022-07-25T04:03:52.659Z,1010.06
2022-07-25T04:04:52.639Z,1010.05
2022-07-25T04:05:52.608Z,1010.04
2022-07-25T04:06:52.591Z,1010.02
2022-07-25T04:07:52.569Z,1010.01
2022-07-25T04:08:52.544Z,1009.99
2022-07-25T04:09:52.513Z,1009.99
2022-07-25T04:10:52.492Z,1010.00
2022-07-25T04:11:52.466Z,1009.96
2022-07-25T04:12:52.448Z,1009.95
2022-07-25T04:13:52.417Z,1009.91
2022-07-25T04:14:52.393Z,1009.87
2022-07-25T04:15:52.369Z,1009.91
2022-07-25T04:16:52.396Z,1009.87
2022-07-25T04:17:52.321Z,1009.83
2022-07-25T04:18:52.297Z,1009.81
2022-07-25T04:19:52.273Z,1009.75
2022-07-25T04:20:52.248Z,1009.74
2022-07-25T04:21:52.223Z,1009.76
2022-07-25T04:22:52.196Z,1009.75
2022-07-25T04:23:52.173Z,1009.75
2022-07-25T04:24:52.154Z,1009.80
2022-07-25T04:25:52.126Z,1009.75
2022-07-25T04:26:52.102Z,1009.76
2022-07-25T04:27:52.082Z,1009.74
2022-07-25T04:28:52.053Z,1009.73
2022-07-25T04:29:52.030Z,1009.73
2022-07-25T04:30:52.009Z,1009.73
2022-07-25T04:31:52.058Z,1009.72
2022-07-25T04:32:51.956Z,1009.73
2022-07-25T04:33:51.934Z,1009.66
2022-07-25T04:34:51.910Z,1009.66
2022-07-25T04:35:51.883Z,1009.67
2022-07-25T04:36:51.865Z,1009.68
2022-07-25T04:37:51.841Z,1009.66
2022-07-25T04:38:51.814Z,1009.65
2022-07-25T04:39:51.793Z,1009.65
2022-07-25T04:40:51.765Z,1009.60
2022-07-25T04:41:51.742Z,1009.64
2022-07-25T04:42:51.716Z,1009.65
2022-07-25T04:43:51.693Z,1009.56
2022-07-25T04:44:51.670Z,1009.56
2022-07-25T04:45:51.678Z,1009.53
2022-07-25T04:46:51.621Z,1009.48
2022-07-25T04:47:51.599Z,1009.49
2022-07-25T04:48:51.623Z,1009.45
2022-07-25T04:49:51.548Z,1009.47
2022-07-25T04:50:51.525Z,1009.46
2022-07-25T04:51:51.500Z,1009.42
2022-07-25T04:52:51.478Z,1009.43
2022-07-25T04:53:51.455Z,1009.38
2022-07-25T04:54:51.433Z,1009.32
2022-07-25T04:55:51.405Z,1009.32
2022-07-25T04:56:51.383Z,1009.31
2022-07-25T04:57:51.360Z,1009.29
2022-07-25T04:58:51.340Z,1009.30
2022-07-25T04:59:51.314Z,1009.25
2022-07-25T05:00:51.398Z,1009.24
2022-07-25T05:01:51.313Z,1009.23
2022-07-25T05:02:51.243Z,1009.26
2022-07-25T05:03:51.218Z,1009.27
2022-07-25T05:04:52.115Z,1009.24
2022-07-25T05:05:51.174Z,1009.23
2022-07-25T05:06:51.150Z,1009.23
2022-07-25T05:07:51.132Z,1009.19
2022-07-25T05:08:51.109Z,1009.20
2022-07-25T05:09:51.078Z,1009.18
2022-07-25T05:10:51.055Z,1009.18
2022-07-25T05:11:55.982Z,1009.14
2022-07-25T05:12:51.010Z,1009.13
2022-07-25T05:13:50.987Z,1009.13
2022-07-25T05:14:50.961Z,1009.13
2022-07-25T05:15:50.941Z,1009.08
2022-07-25T05:16:50.989Z,1009.10
2022-07-25T05:17:50.894Z,1009.07
2022-07-25T05:18:50.870Z,1009.08
2022-07-25T05:19:50.847Z,1009.07
2022-07-25T05:20:50.822Z,1009.06
2022-07-25T05:21:50.807Z,1009.03
2022-07-25T05:22:50.779Z,1009.00
2022-07-25T05:23:50.756Z,1008.98
2022-07-25T05:24:50.732Z,1009.00
2022-07-25T05:25:50.751Z,1008.96
2022-07-25T05:26:50.685Z,1008.96
2022-07-25T05:27:50.664Z,1008.97
2022-07-25T05:28:50.643Z,1008.96
2022-07-25T05:29:50.621Z,1008.98
2022-07-25T05:30:50.593Z,1008.99
2022-07-25T05:31:50.668Z,1008.94
2022-07-25T05:32:50.553Z,1008.92
2022-07-25T05:33:50.527Z,1008.91
2022-07-25T05:34:50.503Z,1008.88
2022-07-25T05:35:50.485Z,1008.81
2022-07-25T05:36:50.460Z,1008.81
2022-07-25T05:37:50.437Z,1008.78
2022-07-25T05:38:50.415Z,1008.78
2022-07-25T05:39:50.390Z,1008.76
2022-07-25T05:40:50.370Z,1008.76
2022-07-25T05:41:50.346Z,1008.73
2022-07-25T05:42:50.325Z,1008.73
2022-07-25T05:43:50.300Z,1008.72
2022-07-25T05:44:50.283Z,1008.73
2022-07-25T05:45:50.259Z,1008.72
2022-07-25T05:46:50.313Z,1008.72
2022-07-25T05:47:50.213Z,1008.76
2022-07-25T05:48:50.249Z,1008.68
2022-07-25T05:49:50.177Z,1008.68
2022-07-25T05:50:50.151Z,1008.72
2022-07-25T05:51:50.132Z,1008.68
2022-07-25T05:52:50.121Z,1008.65
2022-07-25T05:53:50.088Z,1008.65
2022-07-25T05:54:50.071Z,1008.66
2022-07-25T05:55:50.085Z,1008.64
2022-07-25T05:56:50.056Z,1008.65
2022-07-25T05:57:50.055Z,1008.66
2022-07-25T05:58:50.010Z,1008.62
2022-07-25T05:59:49.974Z,1008.66
2022-07-25T06:00:49.951Z,1008.68
2022-07-25T06:01:50.088Z,1008.66
2022-07-25T06:02:50.090Z,1008.66
2022-07-25T06:03:49.897Z,1008.65
2022-07-25T06:04:49.885Z,1008.69
2022-07-25T06:05:49.868Z,1008.67
2022-07-25T06:06:49.850Z,1008.68
2022-07-25T06:07:49.836Z,1008.65
2022-07-25T06:08:49.820Z,1008.64
2022-07-25T06:09:49.801Z,1008.63
2022-07-25T06:10:49.783Z,1008.64
2022-07-25T06:11:59.855Z,1008.63
2022-07-25T06:12:49.746Z,1008.63
2022-07-25T06:13:49.736Z,1008.65
2022-07-25T06:14:49.719Z,1008.65
2022-07-25T06:15:49.853Z,1008.57
2022-07-25T06:16:49.788Z,1008.60
2022-07-25T06:17:49.674Z,1008.59
2022-07-25T06:18:49.660Z,1008.63
2022-07-25T06:19:49.641Z,1008.64
2022-07-25T06:20:49.630Z,1008.62
2022-07-25T06:21:49.611Z,1008.61
2022-07-25T06:22:49.603Z,1008.59
2022-07-25T06:23:49.584Z,1008.59
2022-07-25T06:24:49.569Z,1008.59
2022-07-25T06:25:50.093Z,1008.55
2022-07-25T06:26:49.542Z,1008.56
2022-07-25T06:27:49.534Z,1008.57
2022-07-25T06:28:49.514Z,1008.54
2022-07-25T06:29:49.500Z,1008.57
2022-07-25T06:30:49.487Z,1008.57
2022-07-25T06:31:49.556Z,1008.49
2022-07-25T06:32:49.456Z,1008.49
2022-07-25T06:33:49.443Z,1008.45
2022-07-25T06:34:49.430Z,1008.49
2022-07-25T06:35:49.419Z,1008.46
2022-07-25T06:36:49.407Z,1008.49
2022-07-25T06:37:49.392Z,1008.49
2022-07-25T06:38:49.379Z,1008.46
2022-07-25T06:39:49.366Z,1008.41
2022-07-25T06:40:49.355Z,1008.43
2022-07-25T06:41:49.337Z,1008.40
2022-07-25T06:42:49.325Z,1008.40
2022-07-25T06:43:49.312Z,1008.36
2022-07-25T06:44:49.298Z,1008.33
2022-07-25T06:45:49.291Z,1008.34
2022-07-25T06:46:49.471Z,1008.29
2022-07-25T06:47:49.263Z,1008.29
2022-07-25T06:48:49.359Z,1008.30
2022-07-25T06:49:49.238Z,1008.27
2022-07-25T06:50:49.223Z,1008.31
2022-07-25T06:51:49.213Z,1008.24
2022-07-25T06:52:49.200Z,1008.24
2022-07-25T06:53:49.189Z,1008.20
2022-07-25T06:54:49.173Z,1008.21
2022-07-25T06:55:49.164Z,1008.23
2022-07-25T06:56:49.151Z,1008.17
2022-07-25T06:57:49.141Z,1008.18
2022-07-25T06:58:49.126Z,1008.16
2022-07-25T06:59:49.112Z,1008.19
2022-07-25T07:00:49.126Z,1008.15
2022-07-25T07:01:51.655Z,1008.14
2022-07-25T07:02:49.080Z,1008.10
2022-07-25T07:03:49.160Z,1008.11
2022-07-25T07:04:49.057Z,1008.11
2022-07-25T07:05:49.047Z,1008.07
2022-07-25T07:06:49.035Z,1008.11
2022-07-25T07:07:49.025Z,1008.10
2022-07-25T07:08:49.007Z,1008.04
2022-07-25T07:09:48.999Z,1008.03
2022-07-25T07:10:48.986Z,1008.02
2022-07-25T07:11:48.976Z,1007.99
2022-07-25T07:12:48.965Z,1007.97
2022-07-25T07:13:48.955Z,1007.97
2022-07-25T07:14:48.941Z,1007.97
2022-07-25T07:15:48.973Z,1007.96
2022-07-25T07:16:48.922Z,1007.96
2022-07-25T07:17:48.909Z,1007.91
2022-07-25T07:18:49.607Z,1007.91
2022-07-25T07:19:48.894Z,1007.87
2022-07-25T07:20:48.880Z,1007.87
2022-07-25T07:21:48.869Z,1007.88
2022-07-25T07:22:48.863Z,1007.86
2022-07-25T07:23:48.846Z,1007.86
2022-07-25T07:24:48.838Z,1007.80
2022-07-25T07:25:48.827Z,1007.80
2022-07-25T07:26:48.817Z,1007.76
2022-07-25T07:27:48.810Z,1007.74
2022-07-25T07:28:48.796Z,1007.71
2022-07-25T07:29:48.786Z,1007.71
2022-07-25T07:31:18.695Z,1007.73
2022-07-25T07:31:48.912Z,1007.70
2022-07-25T07:32:48.753Z,1007.68
2022-07-25T07:33:48.741Z,1007.71
2022-07-25T07:34:48.731Z,1007.69
2022-07-25T07:35:48.722Z,1007.70
2022-07-25T07:36:48.721Z,1007.73
2022-07-25T07:37:48.708Z,1007.69
2022-07-25T07:38:48.693Z,1007.64
2022-07-25T07:39:48.678Z,1007.70
2022-07-25T07:40:48.669Z,1007.61
2022-07-25T07:41:48.662Z,1007.63
2022-07-25T07:42:48.648Z,1007.54
2022-07-25T07:43:48.641Z,1007.53
2022-07-25T07:44:48.628Z,1007.53
2022-07-25T07:45:48.620Z,1007.54
2022-07-25T07:46:48.708Z,1007.51
2022-07-25T07:47:48.603Z,1007.53
2022-07-25T07:48:48.657Z,1007.49
2022-07-25T07:49:50.417Z,1007.50
2022-07-25T07:50:48.569Z,1007.48
2022-07-25T07:51:48.556Z,1007.45
2022-07-25T07:52:48.548Z,1007.41
2022-07-25T07:53:48.542Z,1007.45
2022-07-25T07:54:48.529Z,1007.38
2022-07-25T07:55:48.524Z,1007.42
2022-07-25T07:56:48.508Z,1007.41
2022-07-25T07:57:48.500Z,1007.36
2022-07-25T07:58:48.486Z,1007.37
2022-07-25T07:59:48.477Z,1007.36
2022-07-25T08:00:48.466Z,1007.35
2022-07-25T08:01:48.514Z,1007.29
2022-07-25T08:02:48.544Z,1007.28
2022-07-25T08:03:48.437Z,1007.32
2022-07-25T08:04:48.425Z,1007.25
2022-07-25T08:05:48.415Z,1007.23
2022-07-25T08:06:48.403Z,1007.34
2022-07-25T08:07:48.394Z,1007.26
2022-07-25T08:08:48.381Z,1007.23
2022-07-25T08:09:48.371Z,1007.22
2022-07-25T08:10:48.358Z,1007.19
2022-07-25T08:11:48.345Z,1007.17
2022-07-25T08:12:48.336Z,1007.20
2022-07-25T08:13:48.324Z,1007.21
2022-07-25T08:14:48.312Z,1007.16
2022-07-25T08:15:48.397Z,1007.14
2022-07-25T08:16:48.291Z,1007.12
2022-07-25T08:17:48.279Z,1007.11
2022-07-25T08:18:48.271Z,1007.05
2022-07-25T08:19:48.255Z,1007.06
2022-07-25T08:20:48.239Z,1007.05
2022-07-25T08:21:48.223Z,1007.00
2022-07-25T08:22:49.249Z,1007.01
2022-07-25T08:23:48.206Z,1007.01
2022-07-25T08:24:48.191Z,1006.99
2022-07-25T08:25:48.183Z,1006.96
2022-07-25T08:26:48.164Z,1006.96
2022-07-25T08:27:48.152Z,1006.94
2022-07-25T08:28:52.539Z,1006.96
2022-07-25T08:29:48.127Z,1006.99
2022-07-25T08:30:48.210Z,1006.98
2022-07-25T08:31:48.161Z,1006.98
2022-07-25T08:32:48.092Z,1006.97
2022-07-25T08:33:48.078Z,1006.94
2022-07-25T08:34:48.068Z,1006.91
2022-07-25T08:35:48.058Z,1006.89
2022-07-25T08:36:48.048Z,1006.97
2022-07-25T08:37:48.035Z,1006.94
2022-07-25T08:38:48.023Z,1006.92
2022-07-25T08:39:48.011Z,1006.86
2022-07-25T08:40:48.004Z,1006.86
2022-07-25T08:41:47.991Z,1006.83
2022-07-25T08:42:47.977Z,1006.85
2022-07-25T08:43:47.972Z,1006.85
2022-07-25T08:44:47.975Z,1006.78
2022-07-25T08:45:47.955Z,1006.88
2022-07-25T08:46:48.014Z,1006.82
2022-07-25T08:47:47.931Z,1006.77
2022-07-25T08:48:47.976Z,1006.76
2022-07-25T08:49:47.911Z,1006.79
2022-07-25T08:50:47.902Z,1006.79
2022-07-25T08:51:47.891Z,1006.76
2022-07-25T08:52:47.887Z,1006.78
2022-07-25T08:53:48.460Z,1006.73
2022-07-25T08:54:47.860Z,1006.75
2022-07-25T08:55:47.851Z,1006.71
2022-07-25T08:56:47.842Z,1006.70
2022-07-25T08:57:47.834Z,1006.72
2022-07-25T08:58:47.821Z,1006.71
2022-07-25T08:59:47.813Z,1006.64
2022-07-25T09:00:47.803Z,1006.62
2022-07-25T09:01:47.899Z,1006.61
2022-07-25T09:02:47.834Z,1006.61
2022-07-25T09:03:47.773Z,1006.57
2022-07-25T09:04:47.763Z,1006.50
2022-07-25T09:05:47.753Z,1006.48
2022-07-25T09:06:47.744Z,1006.50
2022-07-25T09:07:47.734Z,1006.49
2022-07-25T09:08:47.727Z,1006.42
2022-07-25T09:09:47.715Z,1006.41
2022-07-25T09:10:47.708Z,1006.39
2022-07-25T09:11:47.696Z,1006.39
2022-07-25T09:12:47.689Z,1006.32
2022-07-25T09:13:47.677Z,1006.35
2022-07-25T09:14:47.669Z,1006.39
2022-07-25T09:15:47.711Z,1006.34
2022-07-25T09:16:47.672Z,1006.37
2022-07-25T09:17:47.642Z,1006.32
2022-07-25T09:18:47.633Z,1006.24
2022-07-25T09:19:47.624Z,1006.33
2022-07-25T09:20:47.614Z,1006.27
2022-07-25T09:21:47.612Z,1006.27
2022-07-25T09:22:47.600Z,1006.19
2022-07-25T09:23:47.588Z,1006.20
2022-07-25T09:24:47.582Z,1006.24
2022-07-25T09:25:47.573Z,1006.21
2022-07-25T09:26:47.574Z,1006.15
2022-07-25T09:27:47.555Z,1006.16
2022-07-25T09:28:47.548Z,1006.18
2022-07-25T09:29:47.540Z,1006.18
2022-07-25T09:30:47.595Z,1006.11
2022-07-25T09:31:47.612Z,1006.11
2022-07-25T09:32:47.515Z,1006.06
2022-07-25T09:33:47.507Z,1006.18
2022-07-25T09:34:47.490Z,1006.09
2022-07-25T09:35:47.482Z,1006.09
2022-07-25T09:36:47.474Z,1006.05
2022-07-25T09:37:47.471Z,1006.12
2022-07-25T09:38:47.454Z,1006.08
2022-07-25T09:39:48.409Z,1006.02
2022-07-25T09:40:47.445Z,1006.08
2022-07-25T09:41:47.431Z,1006.10
2022-07-25T09:42:47.422Z,1006.03
2022-07-25T09:43:47.414Z,1006.17
2022-07-25T09:44:47.402Z,1006.10
2022-07-25T09:45:47.395Z,1006.18
2022-07-25T09:46:47.413Z,1006.09
2022-07-25T09:47:47.384Z,1006.11
2022-07-25T09:48:47.461Z,1006.15
2022-07-25T09:49:47.372Z,1006.18
2022-07-25T09:50:47.352Z,1006.00
2022-07-25T09:51:47.340Z,1006.01
2022-07-25T09:52:47.332Z,1006.03
2022-07-25T09:53:47.323Z,1006.11
2022-07-25T09:54:47.313Z,1006.11
2022-07-25T09:55:47.299Z,1006.14
2022-07-25T09:56:47.295Z,1006.08
2022-07-25T09:57:47.285Z,1006.13
2022-07-25T09:58:47.275Z,1006.10
2022-07-25T09:59:47.270Z,1006.11
2022-07-25T10:00:47.253Z,1006.11
2022-07-25T10:01:47.297Z,1006.12
2022-07-25T10:02:47.302Z,1006.16
2022-07-25T10:03:47.226Z,1006.08
2022-07-25T10:04:47.218Z,1006.05
2022-07-25T10:05:47.200Z,1006.06
2022-07-25T10:06:47.188Z,1006.07
2022-07-25T10:07:47.180Z,1006.06
2022-07-25T10:08:47.173Z,1006.02
2022-07-25T10:09:47.158Z,1005.99
2022-07-25T10:10:47.151Z,1006.09
2022-07-25T10:11:47.140Z,1006.02
2022-07-25T10:12:47.131Z,1005.96
2022-07-25T10:13:47.120Z,1006.03
2022-07-25T10:14:47.108Z,1005.94
2022-07-25T10:15:47.097Z,1005.85
2022-07-25T10:16:47.185Z,1005.89
2022-07-25T10:17:47.077Z,1005.97
2022-07-25T10:18:47.070Z,1005.96
2022-07-25T10:19:51.824Z,1005.88
2022-07-25T10:20:47.048Z,1005.80
2022-07-25T10:21:47.040Z,1005.85
2022-07-25T10:22:56.348Z,1005.86
2022-07-25T10:23:47.014Z,1005.78
2022-07-25T10:24:47.010Z,1005.83
2022-07-25T10:25:49.116Z,1005.79
2022-07-25T10:26:46.992Z,1005.85
2022-07-25T10:27:46.981Z,1005.76
2022-07-25T10:28:46.967Z,1005.83
2022-07-25T10:29:46.958Z,1005.73
2022-07-25T10:30:47.002Z,1005.78
2022-07-25T10:31:50.957Z,1005.75
2022-07-25T10:32:46.931Z,1005.68
2022-07-25T10:33:46.928Z,1005.66
2022-07-25T10:34:46.945Z,1005.67
2022-07-25T10:35:46.902Z,1005.74
2022-07-25T10:36:46.899Z,1005.76
2022-07-25T10:37:49.143Z,1005.67
2022-07-25T10:38:46.878Z,1005.62
2022-07-25T10:39:46.868Z,1005.68
2022-07-25T10:40:46.866Z,1005.67
2022-07-25T10:41:46.851Z,1005.67
2022-07-25T10:42:46.845Z,1005.74
2022-07-25T10:43:48.665Z,1005.64
2022-07-25T10:44:46.823Z,1005.55
2022-07-25T10:45:46.858Z,1005.51
2022-07-25T10:46:46.801Z,1005.61
2022-07-25T10:47:46.794Z,1005.64
2022-07-25T10:48:46.815Z,1005.52
2022-07-25T10:50:13.566Z,1005.50
2022-07-25T10:50:55.467Z,1005.58
2022-07-25T10:52:12.651Z,1005.51
2022-07-25T10:52:50.003Z,1005.58
2022-07-25T10:53:48.210Z,1005.48
2022-07-25T10:56:05.072Z,1005.41
2022-07-25T10:56:49.951Z,1005.39
2022-07-25T10:58:15.171Z,1005.39
2022-07-25T10:58:47.386Z,1005.35
2022-07-25T10:59:47.157Z,1005.33
2022-07-25T11:00:59.655Z,1005.32
2022-07-25T11:01:46.865Z,1005.31
2022-07-25T11:02:47.539Z,1005.38
2022-07-25T11:03:46.994Z,1005.31
2022-07-25T11:04:48.271Z,1005.30
2022-07-25T11:05:47.743Z,1005.32
2022-07-25T11:06:48.059Z,1005.23
2022-07-25T11:08:11.172Z,1005.18
2022-07-25T11:08:47.105Z,1005.19
2022-07-25T11:09:47.524Z,1005.33
2022-07-25T11:10:46.601Z,1005.32
2022-07-25T11:11:46.637Z,1005.31
2022-07-25T11:12:47.312Z,1005.34
2022-07-25T11:13:47.821Z,1005.27
2022-07-25T11:14:48.178Z,1005.23
2022-07-25T11:15:46.765Z,1005.25
2022-07-25T11:16:47.866Z,1005.20
2022-07-25T11:17:46.600Z,1005.21
2022-07-25T11:18:47.934Z,1005.29
2022-07-25T11:20:46.703Z,1005.13
2022-07-25T11:21:46.588Z,1005.15
2022-07-25T11:22:47.372Z,1005.17
2022-07-25T11:23:46.639Z,1005.06
2022-07-25T11:24:46.471Z,1004.99
2022-07-25T11:25:48.615Z,1004.96
2022-07-25T11:26:47.154Z,1005.10
2022-07-25T11:27:46.427Z,1004.88
2022-07-25T11:28:46.610Z,1004.85
2022-07-25T11:29:46.778Z,1004.91
2022-07-25T11:30:47.595Z,1004.98
2022-07-25T11:31:46.437Z,1004.91
2022-07-25T11:32:46.779Z,1004.84
2022-07-25T11:33:46.385Z,1004.79
2022-07-25T11:34:48.032Z,1004.96
2022-07-25T11:35:46.333Z,1004.80
2022-07-25T11:36:47.738Z,1004.84
2022-07-25T11:37:47.060Z,1004.80
2022-07-25T11:38:47.634Z,1004.87
2022-07-25T11:39:46.360Z,1004.91
2022-07-25T11:41:48.258Z,1004.86
2022-07-25T11:42:46.263Z,1004.77
2022-07-25T11:43:46.254Z,1004.89
2022-07-25T11:44:48.035Z,1004.75
2022-07-25T11:45:46.257Z,1004.78
2022-07-25T11:46:46.218Z,1004.77
2022-07-25T11:47:46.207Z,1004.66
2022-07-25T11:48:46.289Z,1004.65
2022-07-25T11:49:46.188Z,1004.65
2022-07-25T11:50:46.174Z,1004.68
2022-07-25T11:51:46.168Z,1004.67
2022-07-25T11:52:46.152Z,1004.63
2022-07-25T11:53:46.145Z,1004.63
2022-07-25T11:54:46.126Z,1004.55
2022-07-25T11:55:46.122Z,1004.54
2022-07-25T11:56:46.110Z,1004.57
2022-07-25T11:57:46.100Z,1004.56
2022-07-25T11:58:46.089Z,1004.57
2022-07-25T11:59:46.079Z,1004.48
2022-07-25T12:00:46.075Z,1004.54
2022-07-25T12:01:46.055Z,1004.52
2022-07-25T12:02:46.147Z,1004.53
2022-07-25T12:03:46.092Z,1004.46
2022-07-25T12:04:46.019Z,1004.49
2022-07-25T12:05:46.008Z,1004.48
2022-07-25T12:06:46.005Z,1004.41
2022-07-25T12:07:45.990Z,1004.42
2022-07-25T12:08:45.983Z,1004.41